Flight Track Log - Related Links

Times and Time Zones

All times are in EDT time to prevent confusion due to time zone crossing. See the N271AF flight status page for this flight to view local times or setup timezone preferences in your user account.


Time Position Orientation Groundspeed Altitude Reporting Facility
EDT Latitude Longitude Course Direction KTS MPH feet Rate Location/Type
Tue 02:18:43 PM 39.3833 -84.5667 218° Southwest 92 106 1,700  Level Cincinnati TRACON
Tue 02:19:31 PM 39.3667 -84.5833 218° Southwest 95 109 2,000 444 Climbing Cincinnati TRACON
Tue 02:20:31 PM 39.3500 -84.5500 123° Southeast 111 128 2,500 450 Climbing Cincinnati TRACON
Tue 02:21:31 PM 39.3500 -84.5167 90° East 113 130 2,900 400 Climbing Cincinnati TRACON
Tue 02:22:31 PM 39.3167 -84.4833 142° Southeast 117 135 3,300 421 Climbing Cincinnati TRACON
Tue 02:23:25 PM 39.3000 -84.4667 142° Southeast 105 121 3,700 368 Climbing Cincinnati TRACON
Tue 02:24:25 PM 39.2833 -84.4500 142° Southeast 113 130 4,000 200 Climbing Cincinnati TRACON
Tue 02:24:55 PM 39.2675 -84.4372 148° Southeast 107 123 4,000  Level Indianapolis Center
Tue 02:25:57 PM 39.2331 -84.4064 145° Southeast 117 135 4,000 48 Level Indianapolis Center
Tue 02:26:59 PM 39.2033 -84.3783 144° Southeast 124 143 4,100 242 Climbing Indianapolis Center
Tue 02:28:01 PM 39.1753 -84.3514 143° Southeast 126 145 4,500 387 Climbing Indianapolis Center
Tue 02:29:03 PM 39.1483 -84.3256 143° Southeast 124 143 4,900 244 Climbing Indianapolis Center
Tue 02:30:04 PM 39.1208 -84.2994 144° Southeast 122 140 5,000 49 Climbing Indianapolis Center
Tue 02:31:06 PM 39.0906 -84.2736 146° Southeast 124 143 5,000  Level Indianapolis Center
Tue 02:32:08 PM 39.0608 -84.2453 143° Southeast 128 147 5,000  Level Indianapolis Center
Tue 02:33:10 PM 39.0294 -84.2144 143° Southeast 133 153 5,000  Level Indianapolis Center
Tue 02:34:12 PM 38.9917 -84.1808 145° Southeast 138 159 5,000  Level Indianapolis Center
Tue 02:35:14 PM 38.9606 -84.1539 146° Southeast 136 157 5,000  Level Indianapolis Center
Tue 02:36:16 PM 38.9308 -84.1272 145° Southeast 130 150 5,000  Level Indianapolis Center
Tue 02:37:18 PM 38.8986 -84.1019 149° Southeast 132 152 5,000  Level Indianapolis Center
Tue 02:38:19 PM 38.8761 -84.0614 125° Southeast 138 159 5,000  Level Indianapolis Center
Tue 02:39:21 PM 38.8678 -84.0117 102° East 140 161 5,000  Level Indianapolis Center
Tue 02:40:23 PM 38.8578 -83.9592 104° East 147 169 5,000  Level Indianapolis Center
Tue 02:41:25 PM 38.8564 -83.9008 92° East 147 169 5,000  Level Indianapolis Center
Tue 02:42:27 PM 38.8567 -83.8475 90° East 147 169 5,000  Level Indianapolis Center
Tue 02:43:29 PM 38.8578 -83.7933 88° East 146 168 5,000  Level Indianapolis Center
Tue 02:44:31 PM 38.8575 -83.7422 90° East 143 165 5,000  Level Indianapolis Center
Tue 02:45:33 PM 38.8558 -83.6897 92° East 145 167 5,000  Level Indianapolis Center
Tue 02:46:35 PM 38.8547 -83.6383 92° East 145 167 5,000  Level Indianapolis Center
Tue 02:47:37 PM 38.8531 -83.5861 92° East 146 168 5,000  Level Indianapolis Center
Tue 02:48:39 PM 38.8528 -83.5339 90° East 146 168 5,000  Level Indianapolis Center
Tue 02:49:41 PM 38.8519 -83.4717 91° East 148 170 5,000  Level Indianapolis Center
Tue 02:50:43 PM 38.8508 -83.4200 92° East 144 166 5,000 -48 Level Indianapolis Center
Tue 02:51:45 PM 38.8503 -83.3664 91° East 149 171 4,900 -145 Descending Indianapolis Center
Tue 02:52:47 PM 38.8494 -83.3150 91° East 144 166 4,700 -194 Descending Indianapolis Center
Tue 02:53:49 PM 38.8483 -83.2589 91° East 152 175 4,500 -194 Descending Indianapolis Center
Tue 02:54:51 PM 38.8475 -83.2044 91° East 154 177 4,300 -242 Descending Indianapolis Center
Tue 02:55:53 PM 38.8458 -83.1472 92° East 144 166 4,000 -145 Descending Indianapolis Center
Tue 02:56:55 PM 38.8461 -83.0942 90° East 146 168 4,000  Level Indianapolis Center
Tue 02:57:57 PM 38.8433 -83.0381 94° East 142 163 4,000  Level Indianapolis Center

Login

Don't have an account? Register now (free) for customized features, flight alerts, and more!